createdAt,value
2022-09-18T00:00:36.361Z,0.00
2022-09-18T00:01:36.331Z,0.00
2022-09-18T00:02:36.336Z,0.00
2022-09-18T00:03:36.311Z,0.00
2022-09-18T00:04:36.281Z,0.00
2022-09-18T00:05:36.302Z,0.00
2022-09-18T00:06:36.308Z,0.00
2022-09-18T00:07:36.247Z,0.00
2022-09-18T00:08:36.269Z,0.00
2022-09-18T00:09:36.240Z,0.00
2022-09-18T00:10:36.278Z,0.00
2022-09-18T00:11:36.200Z,0.00
2022-09-18T00:12:36.201Z,0.00
2022-09-18T00:13:36.180Z,0.00
2022-09-18T00:14:36.172Z,0.00
2022-09-18T00:15:36.170Z,0.00
2022-09-18T00:16:36.228Z,0.00
2022-09-18T00:17:36.141Z,0.00
2022-09-18T00:18:36.161Z,0.00
2022-09-18T00:19:36.151Z,0.00
2022-09-18T00:20:36.110Z,0.00
2022-09-18T00:21:36.092Z,0.00
2022-09-18T00:22:36.086Z,0.00
2022-09-18T00:23:36.071Z,0.00
2022-09-18T00:24:36.062Z,0.00
2022-09-18T00:25:36.085Z,0.00
2022-09-18T00:26:36.044Z,0.00
2022-09-18T00:27:36.032Z,0.00
2022-09-18T00:28:36.025Z,0.00
2022-09-18T00:29:36.034Z,0.00
2022-09-18T00:30:36.982Z,0.00
2022-09-18T00:31:36.107Z,0.00
2022-09-18T00:32:35.997Z,0.00
2022-09-18T00:33:35.975Z,0.00
2022-09-18T00:34:35.954Z,0.00
2022-09-18T00:35:35.964Z,0.00
2022-09-18T00:36:35.954Z,0.00
2022-09-18T00:37:35.916Z,0.00
2022-09-18T00:38:35.915Z,0.00
2022-09-18T00:39:35.912Z,0.00
2022-09-18T00:40:36.889Z,0.00
2022-09-18T00:41:35.898Z,0.00
2022-09-18T00:42:35.906Z,0.00
2022-09-18T00:43:35.851Z,0.00
2022-09-18T00:44:35.858Z,0.00
2022-09-18T00:45:35.843Z,0.00
2022-09-18T00:46:35.855Z,0.00
2022-09-18T00:47:35.828Z,0.00
2022-09-18T00:48:35.869Z,0.00
2022-09-18T00:49:35.795Z,0.00
2022-09-18T00:50:35.828Z,0.00
2022-09-18T00:51:35.768Z,0.00
2022-09-18T00:52:35.791Z,0.00
2022-09-18T00:53:35.740Z,0.00
2022-09-18T00:54:35.728Z,0.00
2022-09-18T00:55:35.744Z,0.00
2022-09-18T00:56:35.728Z,0.00
2022-09-18T00:57:35.700Z,0.00
2022-09-18T00:58:35.741Z,0.00
2022-09-18T00:59:35.680Z,0.00
2022-09-18T01:00:35.721Z,0.00
2022-09-18T01:01:35.687Z,0.00
2022-09-18T01:02:35.684Z,0.00
2022-09-18T01:03:35.651Z,0.00
2022-09-18T01:04:35.612Z,0.00
2022-09-18T01:05:35.603Z,0.00
2022-09-18T01:06:35.628Z,0.00
2022-09-18T01:07:35.604Z,0.00
2022-09-18T01:08:37.673Z,0.00
2022-09-18T01:09:35.594Z,0.00
2022-09-18T01:10:35.564Z,0.00
2022-09-18T01:11:35.545Z,0.00
2022-09-18T01:12:35.534Z,0.00
2022-09-18T01:13:35.515Z,0.00
2022-09-18T01:14:35.520Z,0.00
2022-09-18T01:15:35.526Z,0.00
2022-09-18T01:16:35.572Z,0.00
2022-09-18T01:17:35.496Z,0.00
2022-09-18T01:18:35.476Z,0.00
2022-09-18T01:19:35.492Z,0.00
2022-09-18T01:20:36.410Z,0.00
2022-09-18T01:21:35.467Z,0.00
2022-09-18T01:22:35.427Z,0.00
2022-09-18T01:23:35.404Z,0.00
2022-09-18T01:24:35.405Z,0.00
2022-09-18T01:25:35.429Z,0.00
2022-09-18T01:26:35.379Z,0.00
2022-09-18T01:27:35.399Z,0.00
2022-09-18T01:28:35.358Z,0.00
2022-09-18T01:29:35.350Z,0.00
2022-09-18T01:30:35.357Z,0.00
2022-09-18T01:31:35.377Z,0.00
2022-09-18T01:32:35.315Z,0.00
2022-09-18T01:33:35.295Z,0.00
2022-09-18T01:34:35.288Z,0.00
2022-09-18T01:35:41.586Z,0.00
2022-09-18T01:36:36.262Z,0.00
2022-09-18T01:37:35.252Z,0.00
2022-09-18T01:38:35.241Z,0.00
2022-09-18T01:39:35.242Z,0.00
2022-09-18T01:40:35.304Z,0.00
2022-09-18T01:41:35.212Z,0.00
2022-09-18T01:42:35.209Z,0.00
2022-09-18T01:43:35.181Z,0.00
2022-09-18T01:44:35.213Z,0.00
2022-09-18T01:45:35.172Z,0.00
2022-09-18T01:46:35.237Z,0.00
2022-09-18T01:47:35.155Z,0.00
2022-09-18T01:48:35.169Z,0.00
2022-09-18T01:49:35.127Z,0.00
2022-09-18T01:50:35.138Z,0.00
2022-09-18T01:51:35.128Z,0.00
2022-09-18T01:52:35.118Z,0.00
2022-09-18T01:53:35.074Z,0.00
2022-09-18T01:54:35.092Z,0.00
2022-09-18T01:55:35.081Z,0.00
2022-09-18T01:56:35.050Z,0.00
2022-09-18T01:57:35.046Z,0.00
2022-09-18T01:58:35.025Z,0.00
2022-09-18T01:59:35.046Z,0.00
2022-09-18T02:00:35.000Z,0.00
2022-09-18T02:01:35.099Z,0.00
2022-09-18T02:02:35.072Z,0.00
2022-09-18T02:03:34.992Z,0.00
2022-09-18T02:04:34.960Z,0.00
2022-09-18T02:05:34.989Z,0.00
2022-09-18T02:06:34.937Z,0.00
2022-09-18T02:07:34.918Z,0.00
2022-09-18T02:08:34.978Z,0.00
2022-09-18T02:09:34.930Z,0.00
2022-09-18T02:10:34.899Z,0.00
2022-09-18T02:11:34.908Z,0.00
2022-09-18T02:12:34.909Z,0.00
2022-09-18T02:13:34.855Z,0.00
2022-09-18T02:14:34.858Z,0.00
2022-09-18T02:15:34.840Z,0.00
2022-09-18T02:16:34.897Z,0.00
2022-09-18T02:17:34.819Z,0.00
2022-09-18T02:18:34.832Z,0.00
2022-09-18T02:19:34.797Z,0.00
2022-09-18T02:20:34.791Z,0.00
2022-09-18T02:21:34.800Z,0.00
2022-09-18T02:22:34.765Z,0.00
2022-09-18T02:23:34.752Z,0.00
2022-09-18T02:24:34.733Z,0.00
2022-09-18T02:25:34.734Z,0.00
2022-09-18T02:26:34.724Z,0.00
2022-09-18T02:27:34.734Z,0.00
2022-09-18T02:28:34.700Z,0.00
2022-09-18T02:29:34.687Z,0.00
2022-09-18T02:30:34.703Z,0.00
2022-09-18T02:31:34.703Z,0.00
2022-09-18T02:32:34.665Z,0.00
2022-09-18T02:33:34.674Z,0.00
2022-09-18T02:34:34.648Z,0.00
2022-09-18T02:35:34.610Z,0.00
2022-09-18T02:36:34.617Z,0.00
2022-09-18T02:37:34.622Z,0.00
2022-09-18T02:38:34.614Z,0.00
2022-09-18T02:39:34.615Z,0.00
2022-09-18T02:40:34.623Z,0.00
2022-09-18T02:41:34.546Z,0.00
2022-09-18T02:42:35.486Z,0.00
2022-09-18T02:43:34.535Z,0.00
2022-09-18T02:44:34.527Z,0.00
2022-09-18T02:45:34.558Z,0.00
2022-09-18T02:46:34.579Z,0.00
2022-09-18T02:47:34.491Z,0.00
2022-09-18T02:48:34.473Z,0.00
2022-09-18T02:49:34.453Z,0.00
2022-09-18T02:50:34.543Z,0.00
2022-09-18T02:51:34.437Z,0.00
2022-09-18T02:52:34.455Z,0.00
2022-09-18T02:53:34.418Z,0.00
2022-09-18T02:54:34.415Z,0.00
2022-09-18T02:55:34.393Z,0.00
2022-09-18T02:56:34.410Z,0.00
2022-09-18T02:57:34.370Z,0.00
2022-09-18T02:58:34.359Z,0.00
2022-09-18T02:59:34.352Z,0.00
2022-09-18T03:00:34.351Z,0.00
2022-09-18T03:01:34.382Z,0.00
2022-09-18T03:02:34.364Z,0.00
2022-09-18T03:03:34.299Z,0.00
2022-09-18T03:04:34.293Z,0.00
2022-09-18T03:05:34.317Z,0.00
2022-09-18T03:06:34.280Z,0.00
2022-09-18T03:07:34.279Z,0.00
2022-09-18T03:08:34.269Z,0.00
2022-09-18T03:09:34.233Z,0.00
2022-09-18T03:10:34.244Z,0.00
2022-09-18T03:11:34.247Z,0.00
2022-09-18T03:12:34.245Z,0.00
2022-09-18T03:13:34.194Z,0.00
2022-09-18T03:14:34.192Z,0.00
2022-09-18T03:15:34.180Z,0.00
2022-09-18T03:16:34.225Z,0.00
2022-09-18T03:17:34.165Z,0.00
2022-09-18T03:18:34.175Z,0.00
2022-09-18T03:19:34.139Z,0.00
2022-09-18T03:20:34.146Z,0.00
2022-09-18T03:21:34.134Z,0.00
2022-09-18T03:22:34.121Z,0.00
2022-09-18T03:23:34.087Z,0.00
2022-09-18T03:24:34.092Z,0.00
2022-09-18T03:25:34.068Z,0.00
2022-09-18T03:26:34.066Z,0.00
2022-09-18T03:27:34.071Z,0.00
2022-09-18T03:28:34.079Z,0.00
2022-09-18T03:29:34.029Z,0.00
2022-09-18T03:30:34.031Z,0.00
2022-09-18T03:31:34.071Z,0.00
2022-09-18T03:32:34.028Z,0.00
2022-09-18T03:33:33.969Z,0.00
2022-09-18T03:34:34.004Z,0.00
2022-09-18T03:35:33.956Z,0.00
2022-09-18T03:36:33.945Z,0.00
2022-09-18T03:37:33.934Z,0.00
2022-09-18T03:38:33.956Z,0.00
2022-09-18T03:39:33.923Z,0.00
2022-09-18T03:40:33.953Z,0.00
2022-09-18T03:41:33.889Z,0.00
2022-09-18T03:42:33.875Z,0.00
2022-09-18T03:43:33.895Z,0.00
2022-09-18T03:44:33.883Z,0.00
2022-09-18T03:45:33.850Z,0.00
2022-09-18T03:46:33.865Z,0.00
2022-09-18T03:47:36.458Z,0.00
2022-09-18T03:48:33.813Z,0.00
2022-09-18T03:49:34.500Z,0.00
2022-09-18T03:50:33.803Z,0.00
2022-09-18T03:51:33.777Z,0.00
2022-09-18T03:52:33.804Z,0.00
2022-09-18T03:53:33.773Z,0.00
2022-09-18T03:54:33.738Z,0.00
2022-09-18T03:55:33.752Z,0.00
2022-09-18T03:56:33.724Z,0.00
2022-09-18T03:57:33.757Z,0.00
2022-09-18T03:58:33.734Z,0.00
2022-09-18T03:59:33.703Z,0.00
2022-09-18T04:00:33.685Z,0.00
2022-09-18T04:01:33.767Z,0.00
2022-09-18T04:02:33.940Z,0.00
2022-09-18T04:03:33.652Z,0.00
2022-09-18T04:04:33.636Z,0.00
2022-09-18T04:05:33.619Z,0.00
2022-09-18T04:06:33.664Z,0.00
2022-09-18T04:07:33.605Z,0.00
2022-09-18T04:08:33.590Z,0.00
2022-09-18T04:09:33.586Z,0.00
2022-09-18T04:10:33.570Z,0.00
2022-09-18T04:11:33.558Z,0.00
2022-09-18T04:12:33.560Z,0.00
2022-09-18T04:13:33.545Z,0.00
2022-09-18T04:14:33.550Z,0.00
2022-09-18T04:15:33.514Z,0.00
2022-09-18T04:16:33.519Z,0.00
2022-09-18T04:17:33.522Z,0.00
2022-09-18T04:18:34.434Z,0.00
2022-09-18T04:19:33.502Z,0.00
2022-09-18T04:20:33.471Z,0.00
2022-09-18T04:21:33.456Z,0.00
2022-09-18T04:22:34.394Z,0.00
2022-09-18T04:23:33.427Z,0.00
2022-09-18T04:24:33.456Z,0.00
2022-09-18T04:25:33.415Z,0.00
2022-09-18T04:26:33.382Z,0.00
2022-09-18T04:27:33.387Z,0.00
2022-09-18T04:28:33.390Z,0.00
2022-09-18T04:29:33.354Z,0.00
2022-09-18T04:30:33.377Z,0.00
2022-09-18T04:31:33.386Z,0.00
2022-09-18T04:32:33.327Z,0.00
2022-09-18T04:33:33.313Z,0.00
2022-09-18T04:34:33.305Z,0.00
2022-09-18T04:35:34.755Z,0.00
2022-09-18T04:36:33.315Z,0.00
2022-09-18T04:37:33.275Z,0.00
2022-09-18T04:38:33.290Z,0.00
2022-09-18T04:39:33.254Z,0.00
2022-09-18T04:40:33.376Z,0.00
2022-09-18T04:41:33.238Z,0.00
2022-09-18T04:42:33.225Z,0.00
2022-09-18T04:43:33.233Z,0.00
2022-09-18T04:44:33.219Z,0.00
2022-09-18T04:45:33.222Z,0.00
2022-09-18T04:46:33.206Z,0.00
2022-09-18T04:47:33.196Z,0.00
2022-09-18T04:48:33.206Z,0.00
2022-09-18T04:49:33.188Z,0.00
2022-09-18T04:50:33.157Z,0.00
2022-09-18T04:51:33.139Z,0.00
2022-09-18T04:52:33.291Z,0.00
2022-09-18T04:53:33.237Z,4.00
2022-09-18T04:54:33.217Z,4.00
2022-09-18T04:55:33.089Z,4.00
2022-09-18T04:56:33.262Z,4.00
2022-09-18T04:57:33.058Z,4.00
2022-09-18T04:58:33.066Z,4.00
2022-09-18T04:59:33.249Z,4.00
2022-09-18T05:00:33.076Z,8.00
2022-09-18T05:01:33.057Z,8.00
2022-09-18T05:02:32.991Z,12.00
2022-09-18T05:03:33.032Z,8.00
2022-09-18T05:04:32.978Z,12.00
2022-09-18T05:05:33.073Z,16.00
2022-09-18T05:06:32.947Z,12.00
2022-09-18T05:07:32.952Z,12.00
2022-09-18T05:08:33.077Z,16.00
2022-09-18T05:09:32.942Z,24.00
2022-09-18T05:10:32.913Z,24.00
2022-09-18T05:11:32.894Z,16.00
2022-09-18T05:12:32.922Z,20.00
2022-09-18T05:13:32.873Z,20.00
2022-09-18T05:14:32.863Z,20.00
2022-09-18T05:15:32.874Z,20.00
2022-09-18T05:16:32.888Z,20.00
2022-09-18T05:17:32.854Z,24.00
2022-09-18T05:18:32.814Z,16.00
2022-09-18T05:19:32.827Z,20.00
2022-09-18T05:20:32.824Z,24.00
2022-09-18T05:21:32.789Z,24.00
2022-09-18T05:22:32.796Z,36.00
2022-09-18T05:23:32.771Z,36.00
2022-09-18T05:24:32.772Z,32.00
2022-09-18T05:25:32.736Z,40.00
2022-09-18T05:26:32.736Z,44.00
2022-09-18T05:27:32.742Z,52.00
2022-09-18T05:28:32.737Z,44.00
2022-09-18T05:29:32.704Z,68.00
2022-09-18T05:30:32.688Z,68.00
2022-09-18T05:31:32.744Z,76.00
2022-09-18T05:32:32.679Z,80.00
2022-09-18T05:33:34.118Z,76.00
2022-09-18T05:34:32.680Z,80.00
2022-09-18T05:35:32.640Z,76.00
2022-09-18T05:36:32.660Z,80.00
2022-09-18T05:37:32.614Z,84.00
2022-09-18T05:38:32.612Z,88.00
2022-09-18T05:39:32.620Z,96.00
2022-09-18T05:40:32.601Z,104.00
2022-09-18T05:41:32.624Z,104.00
2022-09-18T05:42:32.550Z,116.00
2022-09-18T05:43:32.563Z,120.00
2022-09-18T05:44:32.522Z,128.00
2022-09-18T05:45:32.522Z,140.00
2022-09-18T05:46:32.578Z,160.00
2022-09-18T05:47:32.541Z,168.00
2022-09-18T05:48:32.496Z,192.00
2022-09-18T05:49:32.531Z,204.00
2022-09-18T05:50:32.463Z,200.00
2022-09-18T05:51:32.455Z,216.00
2022-09-18T05:52:32.469Z,200.00
2022-09-18T05:53:32.498Z,208.00
2022-09-18T05:54:32.431Z,208.00
2022-09-18T05:55:32.436Z,216.00
2022-09-18T05:56:32.395Z,224.00
2022-09-18T05:57:33.385Z,232.00
2022-09-18T05:58:33.865Z,272.00
2022-09-18T05:59:32.421Z,244.00
2022-09-18T06:00:32.455Z,216.00
2022-09-18T06:01:32.375Z,224.00
2022-09-18T06:02:32.400Z,220.00
2022-09-18T06:03:33.796Z,224.00
2022-09-18T06:04:32.336Z,316.00
2022-09-18T06:05:32.361Z,428.00
2022-09-18T06:06:32.320Z,512.00
2022-09-18T06:07:32.299Z,552.00
2022-09-18T06:08:32.260Z,524.00
2022-09-18T06:09:33.228Z,572.00
2022-09-18T06:10:32.270Z,616.00
2022-09-18T06:11:33.690Z,660.00
2022-09-18T06:12:32.232Z,596.00
2022-09-18T06:13:32.215Z,640.00
2022-09-18T06:14:32.819Z,600.00
2022-09-18T06:15:32.224Z,476.00
2022-09-18T06:16:32.291Z,476.00
2022-09-18T06:17:32.173Z,356.00
2022-09-18T06:18:32.203Z,372.00
2022-09-18T06:19:32.155Z,344.00
2022-09-18T06:20:32.180Z,320.00
2022-09-18T06:21:32.130Z,332.00
2022-09-18T06:22:32.101Z,288.00
2022-09-18T06:23:32.110Z,288.00
2022-09-18T06:24:32.113Z,340.00
2022-09-18T06:25:32.071Z,328.00
2022-09-18T06:26:32.092Z,328.00
2022-09-18T06:27:32.452Z,132.00
2022-09-18T06:28:32.089Z,192.00
2022-09-18T06:29:32.050Z,192.00
2022-09-18T06:30:32.984Z,180.00
2022-09-18T06:31:32.091Z,204.00
2022-09-18T06:32:32.026Z,204.00
2022-09-18T06:33:32.021Z,200.00
2022-09-18T06:34:35.502Z,228.00
2022-09-18T06:35:32.977Z,336.00
2022-09-18T06:36:31.964Z,256.00
2022-09-18T06:37:31.967Z,224.00
2022-09-18T06:38:32.006Z,308.00
2022-09-18T06:39:31.930Z,348.00
2022-09-18T06:40:32.069Z,404.00
2022-09-18T06:41:32.656Z,496.00
2022-09-18T06:42:31.889Z,580.00
2022-09-18T06:43:31.903Z,632.00
2022-09-18T06:44:31.878Z,528.00
2022-09-18T06:45:31.865Z,660.00
2022-09-18T06:46:31.913Z,580.00
2022-09-18T06:47:31.848Z,712.00
2022-09-18T06:48:31.833Z,616.00
2022-09-18T06:49:31.880Z,636.00
2022-09-18T06:50:31.816Z,616.00
2022-09-18T06:51:33.485Z,568.00
2022-09-18T06:52:31.782Z,608.00
2022-09-18T06:53:32.025Z,716.00
2022-09-18T06:54:31.816Z,764.00
2022-09-18T06:55:39.327Z,780.00
2022-09-18T06:56:31.968Z,848.00
2022-09-18T06:57:32.040Z,868.00
2022-09-18T06:58:31.825Z,876.00
2022-09-18T06:59:31.763Z,948.00
2022-09-18T07:00:31.838Z,1004.00
2022-09-18T07:01:32.021Z,1040.00
2022-09-18T07:02:31.897Z,1064.00
2022-09-18T07:04:58.665Z,1108.00
2022-09-18T07:05:50.259Z,1100.00
2022-09-18T07:08:28.629Z,920.00
2022-09-18T07:09:27.779Z,904.00
2022-09-18T07:10:27.747Z,948.00
2022-09-18T07:11:27.792Z,984.00
2022-09-18T07:12:28.810Z,1044.00
2022-09-18T07:13:28.724Z,1112.00
2022-09-18T07:14:27.711Z,1120.00
2022-09-18T07:15:27.716Z,1148.00
2022-09-18T07:16:28.316Z,1200.00
2022-09-18T07:17:27.693Z,1288.00
2022-09-18T07:18:27.795Z,1344.00
2022-09-18T07:19:27.652Z,1356.00
2022-09-18T07:20:28.030Z,1480.00
2022-09-18T07:21:27.697Z,1516.00
2022-09-18T07:22:27.665Z,1692.00
2022-09-18T07:23:27.633Z,1732.00
2022-09-18T07:24:27.609Z,1864.00
2022-09-18T07:25:27.584Z,1752.00
2022-09-18T07:26:27.577Z,1648.00
2022-09-18T07:27:27.916Z,1596.00
2022-09-18T07:28:27.588Z,2056.00
2022-09-18T07:29:27.609Z,2304.00
2022-09-18T07:30:27.574Z,2312.00
2022-09-18T07:31:27.695Z,2436.00
2022-09-18T07:32:28.339Z,2484.00
2022-09-18T07:33:27.546Z,2496.00
2022-09-18T07:34:29.434Z,2396.00
2022-09-18T07:35:27.485Z,2288.00
2022-09-18T07:36:27.470Z,2360.00
2022-09-18T07:37:27.476Z,2420.00
2022-09-18T07:38:27.461Z,2348.00
2022-09-18T07:39:29.384Z,2648.00
2022-09-18T07:40:28.419Z,2836.00
2022-09-18T07:41:27.404Z,2736.00
2022-09-18T07:42:27.390Z,2544.00
2022-09-18T07:44:37.692Z,2356.00
2022-09-18T07:45:37.824Z,2208.00
2022-09-18T07:46:37.891Z,1864.00
2022-09-18T07:47:37.510Z,1708.00
2022-09-18T07:48:37.511Z,1648.00
2022-09-18T07:49:37.682Z,1668.00
2022-09-18T07:50:37.496Z,1648.00
2022-09-18T07:51:37.465Z,1420.00
2022-09-18T07:52:39.466Z,1632.00
2022-09-18T07:53:37.672Z,1744.00
2022-09-18T07:54:38.405Z,1876.00
2022-09-18T07:55:38.899Z,1904.00
2022-09-18T07:56:40.123Z,1752.00
2022-09-18T07:57:38.369Z,1808.00
2022-09-18T07:58:37.675Z,1556.00
2022-09-18T07:59:38.834Z,1464.00
2022-09-18T08:00:38.863Z,1528.00
2022-09-18T08:01:38.408Z,1772.00
2022-09-18T08:02:37.678Z,2036.00
2022-09-18T08:03:41.368Z,2384.00
2022-09-18T08:04:38.169Z,2204.00
2022-09-18T08:05:38.777Z,2524.00
2022-09-18T08:06:38.764Z,2700.00
2022-09-18T08:07:38.772Z,2820.00
2022-09-18T08:08:37.430Z,3252.00
2022-09-18T08:09:38.741Z,3528.00
2022-09-18T08:10:38.088Z,2788.00
2022-09-18T08:11:37.330Z,2492.00
2022-09-18T08:12:38.703Z,1992.00
2022-09-18T08:13:38.686Z,1304.00
2022-09-18T08:14:37.307Z,1144.00
2022-09-18T08:15:37.336Z,1152.00
2022-09-18T08:16:38.713Z,992.00
2022-09-18T08:17:37.329Z,852.00
2022-09-18T08:18:38.132Z,1156.00
2022-09-18T08:19:38.632Z,1036.00
2022-09-18T08:20:38.642Z,1184.00
2022-09-18T08:21:37.329Z,1216.00
2022-09-18T08:22:38.583Z,1756.00
2022-09-18T08:23:37.931Z,1756.00
2022-09-18T08:24:37.314Z,1716.00
2022-09-18T08:25:37.182Z,1992.00
2022-09-18T08:26:38.608Z,1908.00
2022-09-18T08:27:38.539Z,1792.00
2022-09-18T08:28:37.842Z,1228.00
2022-09-18T08:29:37.051Z,1224.00
2022-09-18T08:30:38.506Z,1464.00
2022-09-18T08:31:37.362Z,1712.00
2022-09-18T08:32:37.335Z,2472.00
2022-09-18T08:33:37.842Z,2448.00
2022-09-18T08:34:37.023Z,2760.00
2022-09-18T08:35:36.977Z,3236.00
2022-09-18T08:36:37.005Z,2992.00
2022-09-18T08:37:36.975Z,3276.00
2022-09-18T08:38:36.959Z,2956.00
2022-09-18T08:39:36.937Z,2296.00
2022-09-18T08:40:37.022Z,1668.00
2022-09-18T08:41:36.992Z,1260.00
2022-09-18T08:42:36.995Z,1480.00
2022-09-18T08:43:36.906Z,1524.00
2022-09-18T08:44:36.904Z,1396.00
2022-09-18T08:45:36.905Z,2136.00
2022-09-18T08:46:36.951Z,2688.00
2022-09-18T08:47:36.843Z,2468.00
2022-09-18T08:48:36.940Z,1848.00
2022-09-18T08:49:36.832Z,1924.00
2022-09-18T08:50:38.686Z,2888.00
2022-09-18T08:51:36.797Z,2932.00
2022-09-18T08:52:36.812Z,2968.00
2022-09-18T08:53:36.810Z,2876.00
2022-09-18T08:54:36.772Z,2864.00
2022-09-18T08:55:36.759Z,3136.00
2022-09-18T08:56:36.753Z,1720.00
2022-09-18T08:57:36.734Z,2616.00
2022-09-18T08:58:36.951Z,3264.00
2022-09-18T08:59:36.723Z,2204.00
2022-09-18T09:00:36.772Z,1864.00
2022-09-18T09:01:36.702Z,1464.00
2022-09-18T09:02:36.720Z,1268.00
2022-09-18T09:03:36.721Z,1592.00
2022-09-18T09:04:36.699Z,1320.00
2022-09-18T09:05:36.665Z,1640.00
2022-09-18T09:06:36.701Z,2836.00
2022-09-18T09:07:36.620Z,3740.00
2022-09-18T09:08:36.625Z,3616.00
2022-09-18T09:09:36.638Z,3264.00
2022-09-18T09:10:36.582Z,3692.00
2022-09-18T09:11:36.588Z,3192.00
2022-09-18T09:12:36.566Z,3588.00
2022-09-18T09:13:36.577Z,2480.00
2022-09-18T09:14:56.009Z,3248.00
2022-09-18T09:15:37.589Z,3204.00
2022-09-18T09:16:38.044Z,2736.00
2022-09-18T09:17:36.533Z,3368.00
2022-09-18T09:18:36.570Z,3624.00
2022-09-18T09:19:36.503Z,4044.00
2022-09-18T09:20:36.508Z,4396.00
2022-09-18T09:21:36.504Z,4460.00
2022-09-18T09:22:36.666Z,4652.00
2022-09-18T09:23:36.454Z,3872.00
2022-09-18T09:24:36.428Z,3244.00
2022-09-18T09:25:36.421Z,2660.00
2022-09-18T09:26:36.417Z,4068.00
2022-09-18T09:27:36.468Z,3016.00
2022-09-18T09:28:36.427Z,3096.00
2022-09-18T09:29:36.379Z,2876.00
2022-09-18T09:30:36.392Z,3332.00
2022-09-18T09:31:36.469Z,2072.00
2022-09-18T09:32:36.357Z,2692.00
2022-09-18T09:33:37.303Z,2944.00
2022-09-18T09:34:36.367Z,3560.00
2022-09-18T09:35:36.311Z,2896.00
2022-09-18T09:36:36.309Z,1912.00
2022-09-18T09:37:36.284Z,2648.00
2022-09-18T09:38:36.293Z,2472.00
2022-09-18T09:39:37.221Z,2096.00
2022-09-18T09:40:36.344Z,1152.00
2022-09-18T09:41:36.246Z,2104.00
2022-09-18T09:42:36.254Z,1736.00
2022-09-18T09:43:36.369Z,1452.00
2022-09-18T09:44:36.221Z,2368.00
2022-09-18T09:45:36.225Z,1552.00
2022-09-18T09:46:36.258Z,2584.00
2022-09-18T09:47:36.183Z,1692.00
2022-09-18T09:48:36.183Z,3020.00
2022-09-18T09:49:36.181Z,3332.00
2022-09-18T09:50:36.177Z,4176.00
2022-09-18T09:51:36.163Z,4352.00
2022-09-18T09:52:36.133Z,4460.00
2022-09-18T09:53:36.115Z,4572.00
2022-09-18T09:54:36.118Z,4484.00
2022-09-18T09:55:36.106Z,4008.00
2022-09-18T09:56:36.090Z,3852.00
2022-09-18T09:57:36.084Z,3716.00
2022-09-18T09:58:36.088Z,3492.00
2022-09-18T09:59:36.073Z,3228.00
2022-09-18T10:00:36.091Z,4152.00
2022-09-18T10:01:36.110Z,4212.00
2022-09-18T10:02:36.084Z,4288.00
2022-09-18T10:03:36.007Z,4532.00
2022-09-18T10:04:36.032Z,3616.00
2022-09-18T10:05:35.989Z,2932.00
2022-09-18T10:06:35.995Z,4204.00
2022-09-18T10:07:35.986Z,4264.00
2022-09-18T10:08:35.987Z,4556.00
2022-09-18T10:09:35.954Z,4548.00
2022-09-18T10:10:35.935Z,4396.00
2022-09-18T10:11:35.948Z,4736.00
2022-09-18T10:12:36.879Z,3812.00
2022-09-18T10:13:35.901Z,4068.00
2022-09-18T10:14:35.924Z,5048.00
2022-09-18T10:15:37.364Z,5528.00
2022-09-18T10:16:35.894Z,5812.00
2022-09-18T10:17:37.850Z,5860.00
2022-09-18T10:18:35.849Z,5464.00
2022-09-18T10:19:36.821Z,4396.00
2022-09-18T10:20:35.825Z,4248.00
2022-09-18T10:21:35.836Z,3356.00
2022-09-18T10:22:35.822Z,3176.00
2022-09-18T10:23:35.806Z,2560.00
2022-09-18T10:24:35.776Z,3496.00
2022-09-18T10:25:35.812Z,4284.00
2022-09-18T10:26:35.757Z,4604.00
2022-09-18T10:27:35.793Z,2960.00
2022-09-18T10:28:35.736Z,4208.00
2022-09-18T10:29:36.187Z,3220.00
2022-09-18T10:30:35.694Z,3008.00
2022-09-18T10:31:35.753Z,1808.00
2022-09-18T10:32:35.677Z,752.00
2022-09-18T10:33:35.675Z,1328.00
2022-09-18T10:34:35.667Z,1296.00
2022-09-18T10:35:35.653Z,836.00
2022-09-18T10:36:35.661Z,1216.00
2022-09-18T10:37:35.650Z,1324.00
2022-09-18T10:38:35.618Z,920.00
2022-09-18T10:39:35.605Z,740.00
2022-09-18T10:40:35.659Z,404.00
2022-09-18T10:41:35.577Z,288.00
2022-09-18T10:42:35.620Z,284.00
2022-09-18T10:43:35.571Z,236.00
2022-09-18T10:44:35.592Z,296.00
2022-09-18T10:45:35.626Z,460.00
2022-09-18T10:46:35.646Z,1104.00
2022-09-18T10:47:35.511Z,1128.00
2022-09-18T10:48:35.533Z,1344.00
2022-09-18T10:49:35.551Z,2036.00
2022-09-18T10:50:35.481Z,1716.00
2022-09-18T10:51:35.482Z,944.00
2022-09-18T10:52:35.487Z,1184.00
2022-09-18T10:53:35.455Z,1228.00
2022-09-18T10:54:35.439Z,2344.00
2022-09-18T10:55:35.495Z,2028.00
2022-09-18T10:56:35.539Z,1500.00
2022-09-18T10:57:36.307Z,1084.00
2022-09-18T10:58:35.437Z,1460.00
2022-09-18T10:59:35.429Z,1656.00
2022-09-18T11:00:35.440Z,800.00
2022-09-18T11:01:35.428Z,1096.00
2022-09-18T11:02:35.546Z,2384.00
2022-09-18T11:03:35.375Z,1816.00
2022-09-18T11:04:35.323Z,1852.00
2022-09-18T11:05:35.315Z,1900.00
2022-09-18T11:06:35.339Z,2964.00
2022-09-18T11:07:36.266Z,2572.00
2022-09-18T11:08:35.276Z,2224.00
2022-09-18T11:09:35.293Z,2520.00
2022-09-18T11:10:35.256Z,1928.00
2022-09-18T11:11:35.293Z,2124.00
2022-09-18T11:12:35.258Z,1756.00
2022-09-18T11:13:35.240Z,1504.00
2022-09-18T11:14:36.181Z,1464.00
2022-09-18T11:15:35.211Z,1504.00
2022-09-18T11:16:35.318Z,1524.00
2022-09-18T11:17:35.213Z,1556.00
2022-09-18T11:18:35.179Z,1136.00
2022-09-18T11:19:35.174Z,1148.00
2022-09-18T11:20:35.158Z,1220.00
2022-09-18T11:21:35.158Z,1768.00
2022-09-18T11:22:35.160Z,1832.00
2022-09-18T11:23:35.129Z,1760.00
2022-09-18T11:24:35.113Z,1920.00
2022-09-18T11:25:35.110Z,2108.00
2022-09-18T11:26:35.095Z,2288.00
2022-09-18T11:27:35.082Z,2360.00
2022-09-18T11:28:35.087Z,2464.00
2022-09-18T11:29:35.050Z,2660.00
2022-09-18T11:30:35.059Z,2804.00
2022-09-18T11:31:35.076Z,2872.00
2022-09-18T11:32:35.039Z,2696.00
2022-09-18T11:33:35.029Z,2460.00
2022-09-18T11:34:34.994Z,2488.00
2022-09-18T11:35:35.021Z,2372.00
2022-09-18T11:36:34.975Z,2168.00
2022-09-18T11:37:34.967Z,2272.00
2022-09-18T11:38:35.435Z,2360.00
2022-09-18T11:39:34.998Z,2336.00
2022-09-18T11:40:35.005Z,2776.00
2022-09-18T11:41:34.934Z,2728.00
2022-09-18T11:42:34.933Z,2616.00
2022-09-18T11:43:34.902Z,2460.00
2022-09-18T11:44:34.881Z,2240.00
2022-09-18T11:45:34.904Z,2332.00
2022-09-18T11:46:34.930Z,2936.00
2022-09-18T11:47:34.872Z,3188.00
2022-09-18T11:48:35.014Z,3468.00
2022-09-18T11:49:34.844Z,3560.00
2022-09-18T11:50:34.823Z,3644.00
2022-09-18T11:51:34.820Z,4104.00
2022-09-18T11:52:34.819Z,4248.00
2022-09-18T11:53:34.806Z,3664.00
2022-09-18T11:54:34.783Z,3388.00
2022-09-18T11:55:34.775Z,3272.00
2022-09-18T11:56:34.797Z,3156.00
2022-09-18T11:57:34.789Z,2788.00
2022-09-18T11:58:34.738Z,2536.00
2022-09-18T11:59:34.789Z,2656.00
2022-09-18T12:00:34.706Z,2372.00
2022-09-18T12:01:34.712Z,2256.00
2022-09-18T12:02:34.932Z,2216.00
2022-09-18T12:03:34.782Z,2076.00
2022-09-18T12:04:34.679Z,2116.00
2022-09-18T12:05:34.749Z,2148.00
2022-09-18T12:06:34.676Z,2152.00
2022-09-18T12:07:48.975Z,2164.00
2022-09-18T12:08:33.274Z,2184.00
2022-09-18T12:09:33.315Z,2192.00
2022-09-18T12:10:33.260Z,2224.00
2022-09-18T12:11:33.244Z,2396.00
2022-09-18T12:12:33.244Z,2516.00
2022-09-18T12:13:33.500Z,2564.00
2022-09-18T12:14:33.292Z,2604.00
2022-09-18T12:15:33.295Z,2748.00
2022-09-18T12:16:33.194Z,2856.00
2022-09-18T12:17:33.147Z,2696.00
2022-09-18T12:18:33.247Z,2536.00
2022-09-18T12:19:33.202Z,2744.00
2022-09-18T12:20:33.149Z,2784.00
2022-09-18T12:21:33.579Z,2772.00
2022-09-18T12:22:33.137Z,2752.00
2022-09-18T12:23:33.093Z,2640.00
2022-09-18T12:24:33.073Z,2436.00
2022-09-18T12:25:33.123Z,2372.00
2022-09-18T12:26:33.045Z,2424.00
2022-09-18T12:27:33.080Z,2244.00
2022-09-18T12:28:33.028Z,2156.00
2022-09-18T12:29:33.073Z,2128.00
2022-09-18T12:30:32.990Z,2312.00
2022-09-18T12:31:33.069Z,2520.00
2022-09-18T12:32:33.023Z,2588.00
2022-09-18T12:33:34.349Z,2532.00
2022-09-18T12:34:32.941Z,2480.00
2022-09-18T12:35:32.999Z,2336.00
2022-09-18T12:36:32.929Z,2340.00
2022-09-18T12:37:32.969Z,2512.00
2022-09-18T12:38:33.033Z,2664.00
2022-09-18T12:39:33.576Z,2512.00
2022-09-18T12:40:33.609Z,2180.00
2022-09-18T12:41:33.606Z,1944.00
2022-09-18T12:42:33.547Z,1728.00